Time;durP1;ratioP1;P1;durP2;ratioP2;P2;SDS_P1;SDS_P2;PMS_P1;PMS_P2;Temp;Humidity;BMP_temperature;BMP_pressure;BME280_temperature;BME280_humidity;BME280_pressure;Samples;Min_cycle;Max_cycle;Signal;HPM_P1;HPM_P2
2023/01/11 00:01:06;;;;;;;1.20;1.10;;;;;;;2.94;100.00;62301.63;5065998;28;20300;-79
2023/01/11 00:03:33;;;;;;;0.80;0.80;;;;;;;3.07;100.00;62317.53;5066699;28;20206;-77
2023/01/11 00:06:00;;;;;;;2.20;1.05;;;;;;;2.93;100.00;62305.66;5065951;28;20221;-78
2023/01/11 00:08:28;;;;;;;1.52;1.42;;;;;;;2.92;100.00;62302.09;5065470;28;20220;-80
2023/01/11 00:10:56;;;;;;;1.67;1.58;;;;;;;2.92;100.00;62302.63;5064673;28;20307;-79
2023/01/11 00:13:23;;;;;;;1.83;1.45;;;;;;;3.01;100.00;62306.31;5060857;28;20210;-78
2023/01/11 00:15:51;;;;;;;1.67;1.58;;;;;;;3.00;100.00;62308.31;5059785;28;20222;-78
2023/01/11 00:18:18;;;;;;;2.03;1.92;;;;;;;3.01;100.00;62306.31;5064693;28;20514;-78
2023/01/11 00:20:46;;;;;;;2.38;2.17;;;;;;;2.83;100.00;62287.84;5066380;28;20244;-78
2023/01/11 00:23:12;;;;;;;4.35;2.22;;;;;;;2.80;100.00;62287.25;5069605;28;20212;-79
2023/01/11 00:25:40;;;;;;;2.95;2.15;;;;;;;2.86;100.00;62296.47;5067644;28;20228;-79
2023/01/11 00:28:07;;;;;;;3.25;2.40;;;;;;;2.80;100.00;62287.25;5070721;28;20201;-78
2023/01/11 00:30:35;;;;;;;3.83;2.47;;;;;;;2.85;100.00;62289.88;5070829;28;20255;-78
2023/01/11 00:33:06;;;;;;;2.83;2.50;;;;;;;2.83;100.00;62292.88;5072196;28;20221;-78
2023/01/11 00:35:33;;;;;;;2.90;2.22;;;;;;;2.81;100.00;62285.78;5069202;28;20511;-79
2023/01/11 00:38:00;;;;;;;2.50;2.30;;;;;;;2.74;100.00;62284.13;5069191;28;20215;-77
2023/01/11 00:40:27;;;;;;;3.00;2.80;;;;;;;2.50;100.00;62254.44;5068534;28;20267;-77
2023/01/11 00:48:26;;;;;;;3.63;2.75;;;;;;;2.45;100.00;62248.78;5069361;28;20216;-78
2023/01/11 00:50:55;;;;;;;3.50;3.20;;;;;;;2.43;100.00;62249.25;5068225;28;20312;-78
2023/01/11 00:53:22;;;;;;;3.25;2.90;;;;;;;2.36;100.00;62240.06;5067706;28;20221;-79
2023/01/11 00:55:49;;;;;;;2.53;2.42;;;;;;;2.43;100.00;62252.28;5067816;28;20225;-80
2023/01/11 00:58:16;;;;;;;3.22;3.00;;;;;;;2.29;100.00;62235.38;5069545;28;20240;-79
2023/01/11 01:00:43;;;;;;;3.05;2.85;;;;;;;2.30;100.00;62236.91;5068581;28;20443;-79
2023/01/11 01:03:10;;;;;;;3.45;3.15;;;;;;;2.38;100.00;62245.13;5067573;28;20297;-79
2023/01/11 01:05:39;;;;;;;3.15;2.95;;;;;;;2.33;100.00;62240.00;5068240;28;20201;-79
2023/01/11 01:08:06;;;;;;;3.67;3.30;;;;;;;2.36;100.00;62243.06;5068377;28;20197;-78
2023/01/11 01:10:33;;;;;;;5.28;3.70;;;;;;;2.34;100.00;62243.53;5071425;28;20950;-77
2023/01/11 01:15:44;;;;;;;2.97;2.78;;;;;;;2.34;100.00;62238.00;5080803;28;20462;-78
2023/01/11 01:18:11;;;;;;;3.63;2.85;;;;;;;2.22;100.00;62228.72;5087963;28;20201;-78
2023/01/11 01:20:40;;;;;;;3.40;3.10;;;;;;;2.08;100.00;62214.34;5071395;28;20637;-79
2023/01/11 01:23:07;;;;;;;5.68;3.90;;;;;;;1.74;100.00;62176.41;5068331;28;20490;-78
2023/01/11 01:25:37;;;;;;;4.35;3.95;;;;;;;2.11;100.00;62219.41;5068923;28;20211;-79
2023/01/11 01:28:04;;;;;;;4.18;3.78;;;;;;;2.13;100.00;62219.47;5068683;28;20216;-79
2023/01/11 01:30:32;;;;;;;4.80;4.38;;;;;;;2.09;100.00;62220.38;5067211;28;20198;-78
2023/01/11 01:32:59;;;;;;;4.50;4.05;;;;;;;2.06;100.00;62211.75;5065868;28;20202;-79
2023/01/11 01:35:26;;;;;;;3.67;3.38;;;;;;;2.03;100.00;62211.72;5068609;28;20412;-78
2023/01/11 01:37:54;;;;;;;3.83;3.50;;;;;;;1.91;100.00;62196.88;5067140;28;20201;-77
2023/01/11 01:40:21;;;;;;;4.32;3.92;;;;;;;1.83;100.00;62188.66;5070448;28;20514;-79
2023/01/11 01:42:53;;;;;;;5.20;4.70;;;;;;;1.88;100.00;62190.78;5068356;28;20430;-80
2023/01/11 01:45:24;;;;;;;4.72;4.22;;;;;;;1.58;100.00;62165.50;5068882;28;20189;-80
2023/01/11 01:47:56;;;;;;;4.75;4.07;;;;;;;1.81;100.00;62186.09;5067639;28;20485;-80
2023/01/11 01:50:27;;;;;;;3.42;3.13;;;;;;;1.72;100.00;62177.38;5064549;28;20261;-78
2023/01/11 01:53:02;;;;;;;3.92;3.40;;;;;;;1.83;100.00;62183.63;5057136;28;20205;-79
2023/01/11 01:55:33;;;;;;;4.22;3.85;;;;;;;1.78;100.00;62185.50;5069786;28;20232;-80
2023/01/11 01:58:04;;;;;;;4.25;3.85;;;;;;;1.81;100.00;62186.09;5068413;28;20209;-79
2023/01/11 02:00:32;;;;;;;5.53;3.97;;;;;;;1.99;100.00;62207.06;5068690;28;20221;-79
2023/01/11 02:03:01;;;;;;;4.32;3.92;;;;;;;1.73;100.00;62180.91;5069358;28;20397;-79
2023/01/11 02:05:28;;;;;;;4.90;4.28;;;;;;;1.81;100.00;62183.59;5068028;28;20198;-80
2023/01/11 02:07:59;;;;;;;11.75;5.13;;;;;;;1.84;100.00;62189.16;5069793;28;20201;-79
2023/01/11 02:10:27;;;;;;;5.72;5.10;;;;;;;1.83;100.00;62188.16;5067620;28;20534;-79
2023/01/11 02:12:58;;;;;;;5.60;5.10;;;;;;;1.85;100.00;62190.72;5067433;28;20217;-79
2023/01/11 02:15:26;;;;;;;5.25;4.32;;;;;;;1.71;100.00;62173.81;5075275;28;20205;-79
2023/01/11 02:17:53;;;;;;;6.88;4.55;;;;;;;1.55;100.00;62159.94;5086698;28;20260;-79
2023/01/11 02:20:57;;;;;;;5.00;4.55;;;;;;;1.65;100.00;62170.19;5067821;28;20232;-79
2023/01/11 02:24:04;;;;;;;5.82;5.22;;;;;;;1.50;100.00;62156.78;5066800;28;20201;-80
2023/01/11 02:27:09;;;;;;;5.55;4.30;;;;;;;1.64;100.00;62171.66;5068071;28;20229;-80
2023/01/11 02:29:49;;;;;;;5.68;4.82;;;;;;;1.76;100.00;62186.00;5066307;28;20247;-80
2023/01/11 02:32:25;;;;;;;5.05;4.55;;;;;;;1.73;100.00;62180.91;5064692;28;20264;-80
2023/01/11 02:35:04;;;;;;;7.57;4.75;;;;;;;2.01;100.00;62209.66;5066779;28;20239;-80
2023/01/11 02:37:39;;;;;;;6.93;5.65;;;;;;;1.86;100.00;62191.22;5066537;28;20221;-80
2023/01/11 02:40:13;;;;;;;11.95;7.35;;;;;;;1.81;100.00;62183.59;5067270;28;20236;-79
2023/01/11 02:45:48;;;;;;;4.97;4.55;;;;;;;1.84;100.00;62189.16;5066045;28;20251;-79
2023/01/11 02:48:22;;;;;;;6.35;4.80;;;;;;;1.75;100.00;62177.94;5066373;28;20255;-79
2023/01/11 02:50:55;;;;;;;6.68;4.35;;;;;;;1.87;100.00;62195.28;5059091;28;20227;-78
2023/01/11 02:53:30;;;;;;;4.60;4.20;;;;;;;2.02;100.00;62207.66;5068819;28;20206;-80
2023/01/11 02:55:59;;;;;;;4.90;4.40;;;;;;;2.08;100.00;62216.84;5066881;28;20216;-79
2023/01/11 02:58:29;;;;;;;5.05;4.65;;;;;;;1.97;100.00;62202.50;5066762;28;20450;-82
2023/01/11 03:00:59;;;;;;;4.93;4.40;;;;;;;2.12;100.00;62218.44;5081514;28;20237;-79
2023/01/11 03:03:28;;;;;;;5.43;4.78;;;;;;;2.18;100.00;62226.59;5086338;28;20469;-80
2023/01/11 03:05:59;;;;;;;5.45;4.93;;;;;;;2.20;100.00;62226.13;5086590;28;20227;-79
2023/01/11 03:08:47;;;;;;;7.13;5.20;;;;;;;2.34;100.00;62238.00;5081843;28;20204;-79
2023/01/11 03:12:50;;;;;;;5.55;4.50;;;;;;;2.15;100.00;62226.53;5050056;28;20318;-79
2023/01/11 03:14:19;;;;;;;4.97;4.45;;;;;;;2.09;100.00;62215.34;5066480;28;20209;-78
2023/01/11 03:16:55;;;;;;;4.47;3.78;;;;;;;2.29;100.00;62232.88;5067533;28;20239;-79
2023/01/11 03:19:33;;;;;;;3.97;3.67;;;;;;;2.36;100.00;62243.06;5067386;28;20406;-78
2023/01/11 03:22:07;;;;;;;3.97;3.67;;;;;;;2.53;100.00;62257.00;5067820;28;20463;-80
2023/01/11 03:24:44;;;;;;;3.70;3.50;;;;;;;2.56;100.00;62263.13;5066439;28;20212;-78
2023/01/11 03:27:21;;;;;;;5.15;4.68;;;;;;;2.64;100.00;62270.81;5065054;28;20235;-80
2023/01/11 03:29:53;;;;;;;4.63;4.03;;;;;;;2.66;100.00;62268.34;5066753;28;20517;-81
2023/01/11 03:32:32;;;;;;;4.35;3.70;;;;;;;2.68;100.00;62272.94;5066659;28;20225;-81
2023/01/11 03:35:11;;;;;;;5.88;4.50;;;;;;;2.57;100.00;62261.13;5068096;28;20201;-79
2023/01/11 03:37:42;;;;;;;4.55;4.15;;;;;;;2.45;100.00;62256.81;5050495;28;20225;-78
2023/01/11 03:40:14;;;;;;;5.47;4.20;;;;;;;2.46;100.00;62249.81;5065823;28;20247;-81
2023/01/11 03:45:27;;;;;;;4.28;3.88;;;;;;;2.66;100.00;62273.38;5065379;28;20193;-78
2023/01/11 03:47:57;;;;;;;4.20;3.83;;;;;;;2.56;100.00;62260.59;5067242;28;20219;-80
2023/01/11 03:50:27;;;;;;;3.92;3.63;;;;;;;2.47;100.00;62250.84;5068491;28;20241;-78
2023/01/11 03:52:57;;;;;;;4.20;3.90;;;;;;;2.32;100.00;62235.94;5066049;28;20202;-79
2023/01/11 03:55:28;;;;;;;5.10;3.63;;;;;;;2.36;100.00;62240.56;5064312;28;20255;-79
2023/01/11 03:57:58;;;;;;;4.10;3.80;;;;;;;2.57;100.00;62266.66;5071374;28;20446;-80
2023/01/11 04:00:26;;;;;;;4.15;3.75;;;;;;;2.69;100.00;62270.94;5072509;28;20241;-81
2023/01/11 04:02:54;;;;;;;4.28;3.92;;;;;;;2.73;100.00;62282.56;5073160;28;20224;-80
2023/01/11 04:05:22;;;;;;;3.67;3.38;;;;;;;2.72;100.00;62281.56;5071130;28;20206;-80
2023/01/11 04:07:49;;;;;;;4.38;4.05;;;;;;;2.79;100.00;62284.25;5071430;28;20232;-79
2023/01/11 04:10:16;;;;;;;5.13;4.65;;;;;;;2.81;100.00;62288.81;5071003;28;20209;-79
2023/01/11 04:12:47;;;;;;;4.97;4.57;;;;;;;2.88;100.00;62292.97;5068437;28;20236;-80
2023/01/11 04:15:14;;;;;;;4.97;4.18;;;;;;;2.90;100.00;62297.53;5066713;28;20192;-81
2023/01/11 04:17:42;;;;;;;6.28;5.00;;;;;;;2.75;100.00;62285.16;5088714;28;20217;-80
2023/01/11 04:20:11;;;;;;;5.45;5.03;;;;;;;2.80;100.00;62287.78;5069652;28;20442;-79
2023/01/11 04:22:39;;;;;;;5.43;4.90;;;;;;;2.93;100.00;62301.13;5065529;28;20557;-78
2023/01/11 04:25:07;;;;;;;4.40;4.00;;;;;;;2.84;100.00;62286.84;5070854;28;20201;-80
2023/01/11 04:27:34;;;;;;;6.05;5.28;;;;;;;2.77;100.00;62284.69;5070067;28;20229;-81
2023/01/11 04:30:01;;;;;;;8.98;7.15;;;;;;;2.89;100.00;62301.53;5071690;28;20205;-81
2023/01/11 04:32:28;;;;;;;7.88;7.03;;;;;;;2.92;100.00;62297.59;5068939;28;20221;-79
2023/01/11 04:34:55;;;;;;;8.98;6.78;;;;;;;2.90;100.00;62295.53;5070336;28;20538;-80
2023/01/11 04:37:23;;;;;;;9.13;7.80;;;;;;;2.86;100.00;62296.47;5069958;28;20289;-80
2023/01/11 04:39:50;;;;;;;9.68;7.13;;;;;;;2.88;100.00;62293.47;5070993;28;20217;-80
2023/01/11 04:42:19;;;;;;;8.32;7.40;;;;;;;2.80;100.00;62285.25;5068754;28;20251;-79
2023/01/11 04:44:47;;;;;;;12.30;6.97;;;;;;;2.81;100.00;62288.81;5072265;28;20205;-81
2023/01/11 04:47:15;;;;;;;11.52;6.38;;;;;;;2.82;100.00;62287.31;5070841;28;20225;-79
2023/01/11 04:49:42;;;;;;;7.05;6.00;;;;;;;2.85;100.00;62292.91;5070029;28;20201;-80
2023/01/11 04:52:11;;;;;;;6.10;4.97;;;;;;;2.48;100.00;62251.88;5067047;28;20244;-79
2023/01/11 04:54:39;;;;;;;5.13;3.58;;;;;;;2.74;100.00;62281.09;5066739;28;20202;-81
2023/01/11 04:57:07;;;;;;;5.47;4.43;;;;;;;2.62;100.00;62269.28;5068865;28;20225;-79
2023/01/11 04:59:34;;;;;;;4.15;3.28;;;;;;;2.64;100.00;62270.81;5063019;28;20319;-81
2023/01/11 05:02:01;;;;;;;3.40;3.20;;;;;;;2.44;100.00;62250.25;5064127;28;20237;-80
2023/01/11 05:04:28;;;;;;;3.25;2.95;;;;;;;2.60;100.00;62264.72;5063752;28;20190;-78
2023/01/11 05:06:55;;;;;;;2.13;1.98;;;;;;;2.60;100.00;62271.72;5067708;28;20221;-80
2023/01/11 05:09:22;;;;;;;3.30;3.00;;;;;;;2.45;100.00;62253.81;5069247;28;20205;-80
2023/01/11 05:11:50;;;;;;;2.83;2.63;;;;;;;2.34;100.00;62240.53;5069452;28;20255;-79
2023/01/11 05:14:17;;;;;;;2.60;2.30;;;;;;;2.44;100.00;62253.28;5071939;28;20291;-81
2023/01/11 05:16:45;;;;;;;2.10;2.00;;;;;;;2.41;100.00;62247.19;5088800;28;20545;-81
2023/01/11 05:19:12;;;;;;;2.08;1.98;;;;;;;2.45;100.00;62251.31;5070420;28;20241;-79
2023/01/11 05:21:41;;;;;;;2.60;1.77;;;;;;;2.53;100.00;62259.50;5070215;28;20237;-81
2023/01/11 05:24:10;;;;;;;2.20;2.10;;;;;;;2.57;100.00;62263.63;5070462;28;20201;-79
2023/01/11 05:26:39;;;;;;;3.45;1.77;;;;;;;2.49;100.00;62257.91;5081666;28;20218;-80
2023/01/11 05:29:10;;;;;;;1.95;1.85;;;;;;;2.53;100.00;62260.03;5054051;28;20228;-81
2023/01/11 05:31:39;;;;;;;2.13;2.00;;;;;;;2.57;100.00;62264.16;5067154;28;20221;-80
2023/01/11 05:34:06;;;;;;;4.32;3.20;;;;;;;2.54;100.00;62263.06;5068554;28;20423;-81
2023/01/11 05:36:35;;;;;;;2.80;2.60;;;;;;;2.60;100.00;62264.19;5070021;28;20232;-81
2023/01/11 05:39:05;;;;;;;2.58;2.38;;;;;;;2.62;100.00;62268.75;5068661;28;20205;-81
2023/01/11 05:41:37;;;;;;;3.00;2.65;;;;;;;2.47;100.00;62255.88;5071809;28;20551;-80
2023/01/11 05:46:51;;;;;;;2.90;2.70;;;;;;;2.64;100.00;62271.31;5073408;28;20243;-82
2023/01/11 05:49:19;;;;;;;3.17;2.67;;;;;;;2.54;100.00;62258.03;5072830;28;20221;-82
2023/01/11 05:51:46;;;;;;;3.47;3.17;;;;;;;2.67;100.00;62276.41;5071139;28;20217;-82
2023/01/11 05:54:15;;;;;;;3.95;3.47;;;;;;;2.67;100.00;62273.91;5069550;28;20214;-80
2023/01/11 05:56:45;;;;;;;3.60;3.30;;;;;;;2.68;100.00;62272.41;5072375;28;20235;-81
2023/01/11 05:59:12;;;;;;;4.35;3.92;;;;;;;2.74;100.00;62281.09;5072882;28;20239;-80
2023/01/11 06:01:40;;;;;;;5.72;4.07;;;;;;;2.38;100.00;62242.13;5072196;28;20232;-80
2023/01/11 06:04:08;;;;;;;4.03;3.65;;;;;;;2.69;100.00;62270.94;5073095;28;20201;-80
2023/01/11 06:06:35;;;;;;;4.72;3.88;;;;;;;2.52;100.00;62264.03;5051537;28;20234;-80
2023/01/11 06:09:02;;;;;;;6.53;4.22;;;;;;;2.45;100.00;62256.81;5048923;28;20240;-79
2023/01/11 06:11:29;;;;;;;5.72;4.53;;;;;;;2.31;100.00;62234.94;5048678;28;20237;-81
2023/01/11 06:13:56;;;;;;;5.10;4.45;;;;;;;2.25;100.00;62233.78;5066276;28;20252;-82
2023/01/11 06:16:23;;;;;;;5.97;4.32;;;;;;;2.29;100.00;62235.91;5084101;28;20229;-79
2023/01/11 06:18:52;;;;;;;4.80;4.30;;;;;;;1.87;100.00;62192.75;5088809;28;20235;-82
2023/01/11 06:21:21;;;;;;;6.45;5.05;;;;;;;2.02;100.00;62210.66;5086886;28;20290;-78
2023/01/11 06:23:50;;;;;;;6.18;4.70;;;;;;;2.19;100.00;62220.59;5050065;28;20240;-81
2023/01/11 06:26:19;;;;;;;5.57;3.80;;;;;;;2.04;100.00;62207.19;5049248;28;20226;-79
2023/01/11 06:28:47;;;;;;;4.55;4.13;;;;;;;2.35;100.00;62241.53;5053580;28;20193;-82
2023/01/11 06:31:14;;;;;;;4.05;3.55;;;;;;;2.45;100.00;62249.28;5070674;28;20272;-79
2023/01/11 06:33:41;;;;;;;4.40;4.00;;;;;;;2.55;100.00;62262.09;5071046;28;20380;-80
2023/01/11 06:36:11;;;;;;;4.63;4.15;;;;;;;2.61;100.00;62265.22;5069401;28;20244;-82
2023/01/11 06:38:39;;;;;;;3.60;3.30;;;;;;;2.55;100.00;62259.06;5067744;28;20201;-83
2023/01/11 06:41:08;;;;;;;5.63;4.75;;;;;;;2.67;100.00;62273.91;5069324;28;20240;-78
2023/01/11 06:43:36;;;;;;;4.07;3.72;;;;;;;2.89;100.00;62296.50;5068448;28;20215;-81
2023/01/11 06:46:03;;;;;;;5.20;4.25;;;;;;;2.97;100.00;62302.72;5051324;28;20275;-82
2023/01/11 06:48:30;;;;;;;5.70;4.43;;;;;;;3.07;100.00;62318.03;5050799;28;20198;-79
2023/01/11 06:50:58;;;;;;;12.73;8.00;;;;;;;3.11;100.00;62317.13;5051186;28;20217;-81
2023/01/11 06:53:26;;;;;;;5.75;4.75;;;;;;;3.22;100.00;62330.94;5049437;28;20202;-83
2023/01/11 06:55:56;;;;;;;6.60;5.40;;;;;;;3.24;100.00;62333.00;5048682;28;20229;-82
2023/01/11 06:58:24;;;;;;;4.30;3.90;;;;;;;3.18;100.00;62324.31;5049694;28;20471;-82
2023/01/11 07:00:52;;;;;;;4.50;4.20;;;;;;;3.19;100.00;62322.31;5069125;28;20247;-83
2023/01/11 07:03:22;;;;;;;6.22;4.53;;;;;;;3.20;100.00;62328.88;5068037;28;20197;-81
2023/01/11 07:05:50;;;;;;;5.85;5.13;;;;;;;3.38;100.00;62349.41;5070447;28;20221;-79
2023/01/11 07:08:17;;;;;;;6.28;5.60;;;;;;;3.59;100.00;62365.44;5069258;28;20213;-80
2023/01/11 07:10:46;;;;;;;7.78;5.30;;;;;;;3.64;100.00;62371.09;5068952;28;20204;-81
2023/01/11 07:13:16;;;;;;;15.27;8.30;;;;;;;3.64;100.00;62370.59;5069542;28;20213;-81
2023/01/11 07:15:43;;;;;;;8.50;5.97;;;;;;;3.92;100.00;62404.41;5067748;28;20192;-81
2023/01/11 07:18:11;;;;;;;8.65;6.65;;;;;;;3.95;100.00;62408.00;5069686;28;20196;-79
2023/01/11 07:20:38;;;;;;;6.88;5.28;;;;;;;4.15;100.00;62423.56;5066106;28;20510;-80
2023/01/11 07:23:06;;;;;;;6.68;4.85;;;;;;;4.07;100.00;62415.31;5073345;28;20232;-81
2023/01/11 07:25:33;;;;;;;4.75;3.58;;;;;;;4.26;100.00;62436.88;5080483;28;20450;-81
2023/01/11 07:28:04;;;;;;;4.65;4.22;;;;;;;4.38;100.00;62447.19;5075500;28;20319;-83
2023/01/11 07:30:35;;;;;;;4.13;3.80;;;;;;;4.35;100.00;62449.16;5075540;28;20243;-81
2023/01/11 07:33:05;;;;;;;4.50;3.88;;;;;;;4.28;100.00;62439.44;5073468;28;20202;-78
2023/01/11 07:35:32;;;;;;;4.05;3.75;;;;;;;4.06;100.00;62418.81;5072895;28;20224;-81
2023/01/11 07:37:59;;;;;;;4.55;3.80;;;;;;;4.40;100.00;62449.25;5085299;28;20201;-81
2023/01/11 07:40:26;;;;;;;4.22;3.75;;;;;;;4.46;100.00;62452.94;5075058;28;20197;-82
2023/01/11 07:43:13;;;;;;;6.93;5.53;;;;;;;4.45;100.00;62458.94;5074628;28;20232;-82
2023/01/11 07:45:44;;;;;;;7.60;4.65;;;;;;;4.47;100.00;62461.00;5073260;28;20222;-81
2023/01/11 07:48:11;;;;;;;6.18;5.07;;;;;;;4.40;100.00;62453.81;5076869;28;20525;-82
2023/01/11 07:50:40;;;;;;;4.88;4.05;;;;;;;4.17;100.00;62430.66;5082578;28;20208;-80
2023/01/11 07:53:07;;;;;;;5.03;4.45;;;;;;;4.05;100.00;62417.78;5081604;28;20234;-83
2023/01/11 07:55:36;;;;;;;6.25;5.47;;;;;;;4.19;100.00;62430.19;5073458;28;20303;-80
2023/01/11 07:58:05;;;;;;;4.00;3.70;;;;;;;4.28;100.00;62439.44;5069213;28;20206;-84
2023/01/11 08:00:34;;;;;;;3.40;3.10;;;;;;;4.39;100.00;62447.72;5070141;28;20438;-82
2023/01/11 08:03:02;;;;;;;3.90;3.50;;;;;;;4.14;100.00;62422.50;5061227;28;20546;-81
2023/01/11 08:05:31;;;;;;;4.68;4.20;;;;;;;4.02;100.00;62412.69;5063942;28;20227;-81
2023/01/11 08:07:58;;;;;;;5.50;4.85;;;;;;;4.37;100.00;62456.25;5067829;28;20202;-82
2023/01/11 08:10:27;;;;;;;4.78;4.35;;;;;;;4.51;100.00;62460.59;5068484;28;20431;-79
2023/01/11 08:15:41;;;;;;;4.85;4.07;;;;;;;4.74;100.00;62486.78;5079354;28;20195;-82
2023/01/11 08:18:10;;;;;;;2.90;2.28;;;;;;;4.68;100.00;62480.63;5087505;28;20208;-82
2023/01/11 08:20:38;;;;;;;3.10;2.90;;;;;;;4.46;100.00;62455.44;5089780;28;20201;-83
2023/01/11 08:23:06;;;;;;;2.58;2.10;;;;;;;4.19;100.00;62432.19;5090119;28;20428;-82
2023/01/11 08:25:34;;;;;;;1.77;1.55;;;;;;;4.17;100.00;62428.13;5089530;28;20201;-79
2023/01/11 08:28:03;;;;;;;3.00;1.60;;;;;;;4.15;100.00;62420.50;5090090;28;20204;-82
2023/01/11 08:30:31;;;;;;;1.55;1.45;;;;;;;4.08;100.00;62421.38;5081333;28;20205;-82
2023/01/11 08:33:00;;;;;;;2.25;1.88;;;;;;;3.97;100.00;62409.56;5073884;28;20189;-82
2023/01/11 08:35:30;;;;;;;1.52;1.42;;;;;;;3.63;100.00;62374.56;5071279;28;20269;-81
2023/01/11 08:37:58;;;;;;;1.30;1.20;;;;;;;3.50;100.00;62357.19;5071345;28;20220;-83
2023/01/11 08:40:28;;;;;;;1.45;1.33;;;;;;;3.18;100.00;62331.34;5052288;28;20190;-83
2023/01/11 08:42:56;;;;;;;1.20;1.20;;;;;;;3.04;100.00;62312.44;5053143;28;20245;-83
2023/01/11 08:45:27;;;;;;;1.50;1.38;;;;;;;3.11;100.00;62316.59;5054445;28;20202;-83
2023/01/11 08:47:55;;;;;;;0.93;0.93;;;;;;;3.32;100.00;62343.22;5063363;28;20201;-80
2023/01/11 08:50:24;;;;;;;1.20;1.10;;;;;;;3.42;100.00;62354.00;5076491;28;20210;-82
2023/01/11 08:52:54;;;;;;;0.98;0.98;;;;;;;3.42;100.00;62350.97;5074810;28;20248;-82
2023/01/11 08:55:22;;;;;;;1.25;1.20;;;;;;;3.46;100.00;62358.13;5076114;28;20239;-83
2023/01/11 08:57:49;;;;;;;0.98;0.98;;;;;;;3.45;100.00;62354.56;5075280;28;20244;-82
2023/01/11 09:00:17;;;;;;;1.20;1.10;;;;;;;3.39;100.00;62347.91;5073357;28;20185;-83
2023/01/11 09:02:44;;;;;;;1.70;1.60;;;;;;;3.41;100.00;62345.44;5072508;28;20245;-82
2023/01/11 09:05:11;;;;;;;1.10;1.10;;;;;;;3.18;100.00;62326.31;5054414;28;20244;-80
2023/01/11 09:07:38;;;;;;;1.48;1.40;;;;;;;3.10;100.00;62318.09;5054737;28;20218;-83
2023/01/11 09:10:07;;;;;;;1.50;1.40;;;;;;;3.25;100.00;62333.50;5054462;28;20247;-84
2023/01/11 09:12:34;;;;;;;1.75;1.65;;;;;;;3.49;100.00;62358.69;5053320;28;20230;-78
2023/01/11 09:15:01;;;;;;;1.42;1.33;;;;;;;3.53;100.00;62362.81;5051643;28;20202;-79
2023/01/11 09:17:28;;;;;;;2.28;2.00;;;;;;;3.80;100.00;62389.53;5057825;28;20217;-80
2023/01/11 09:19:56;;;;;;;4.15;2.00;;;;;;;4.07;100.00;62415.31;5071353;28;20193;-82
2023/01/11 09:22:24;;;;;;;1.77;1.67;;;;;;;4.12;100.00;62425.50;5073712;28;20262;-81
2023/01/11 09:24:51;;;;;;;1.60;1.50;;;;;;;4.07;100.00;62417.31;5073842;28;20273;-79
2023/01/11 09:27:19;;;;;;;1.65;1.60;;;;;;;4.24;100.00;62432.28;5071401;28;20447;-80
2023/01/11 09:29:46;;;;;;;1.27;1.27;;;;;;;4.05;100.00;62412.75;5069951;28;20389;-84
2023/01/11 09:32:13;;;;;;;1.67;1.55;;;;;;;3.83;100.00;62395.16;5071597;28;20229;-83
2023/01/11 09:34:42;;;;;;;1.67;1.58;;;;;;;3.51;100.00;62357.72;5072673;28;20208;-84
2023/01/11 09:37:09;;;;;;;1.80;1.70;;;;;;;3.88;100.00;62400.81;5072311;28;20220;-80
2023/01/11 09:39:36;;;;;;;4.05;1.40;;;;;;;3.52;100.00;62356.22;5071412;28;20208;-86
2023/01/11 09:42:36;;;;;;;2.85;2.72;;;;;;;3.93;100.00;62397.88;5071565;28;20260;-82
2023/01/11 09:45:13;;;;;;;1.65;1.63;;;;;;;4.04;100.00;62417.25;5073429;28;20558;-82
2023/01/11 09:47:45;;;;;;;2.22;1.80;;;;;;;3.91;100.00;62401.38;5073381;28;20217;-82
2023/01/11 09:50:20;;;;;;;1.73;1.63;;;;;;;4.15;100.00;62425.56;5074177;28;20185;-84
2023/01/11 09:52:51;;;;;;;1.70;1.60;;;;;;;4.50;100.00;62462.06;5071689;28;20237;-80
2023/01/11 09:55:25;;;;;;;1.77;1.67;;;;;;;3.85;100.00;62392.69;5072573;28;20355;-79
2023/01/11 09:58:10;;;;;;;2.30;1.88;;;;;;;3.88;100.00;62398.31;5073090;28;20428;-80
2023/01/11 10:00:48;;;;;;;2.03;1.83;;;;;;;3.88;100.00;62402.81;5069723;28;20196;-81
2023/01/11 10:03:53;;;;;;;1.92;1.83;;;;;;;4.07;100.00;62417.31;5061047;28;20225;-80
2023/01/11 10:06:25;;;;;;;2.63;1.52;;;;;;;4.06;100.00;62419.31;5077906;28;20221;-79
2023/01/11 10:09:07;;;;;;;1.20;1.20;;;;;;;4.49;100.00;62463.06;5070263;28;20224;-83
2023/01/11 10:11:50;;;;;;;1.98;1.88;;;;;;;4.62;100.00;62476.94;5080004;28;20259;-81
2023/01/11 10:14:32;;;;;;;1.27;1.20;;;;;;;4.67;100.00;62477.06;5084183;28;20192;-82
2023/01/11 10:17:11;;;;;;;1.58;1.50;;;;;;;4.94;100.00;62504.34;5076861;28;20526;-81
2023/01/11 10:19:44;;;;;;;1.75;1.65;;;;;;;5.00;100.00;62515.56;5083425;28;20438;-82
2023/01/11 10:22:17;;;;;;;1.30;1.30;;;;;;;5.16;100.00;62527.00;5077035;28;20278;-80
2023/01/11 10:24:50;;;;;;;1.70;1.60;;;;;;;5.25;99.25;62538.78;5077983;28;20213;-81
2023/01/11 10:27:22;;;;;;;1.92;1.83;;;;;;;5.11;97.76;62521.34;5075628;28;20288;-84
2023/01/11 10:30:11;;;;;;;2.13;1.92;;;;;;;4.95;97.88;62507.91;5077248;28;20228;-84
2023/01/11 10:33:05;;;;;;;4.00;1.65;;;;;;;4.54;100.00;62465.69;5065042;28;20272;-82
2023/01/11 10:35:57;;;;;;;1.42;1.33;;;;;;;4.60;99.08;62469.34;5079232;28;20239;-82
2023/01/11 10:38:56;;;;;;;1.58;1.10;;;;;;;4.21;98.12;62432.22;5080324;28;20565;-86
2023/01/11 10:41:32;;;;;;;1.60;1.50;;;;;;;4.65;100.00;62477.53;5073975;28;20348;-80
2023/01/11 10:44:17;;;;;;;1.55;1.55;;;;;;;4.87;98.35;62499.66;5084324;28;20228;-81
2023/01/11 10:46:51;;;;;;;2.55;1.27;;;;;;;4.94;97.63;62509.38;5058261;28;20280;-83
2023/01/11 10:49:42;;;;;;;2.50;1.63;;;;;;;5.15;98.04;62528.50;5069730;28;20209;-80
2023/01/11 10:52:24;;;;;;;1.77;1.67;;;;;;;5.19;97.36;62537.66;5068078;28;20418;-82
2023/01/11 10:54:54;;;;;;;3.63;1.70;;;;;;;5.28;95.23;62539.34;5076206;28;20197;-81
2023/01/11 10:57:35;;;;;;;1.77;1.67;;;;;;;4.82;94.73;62491.97;5069466;28;20475;-82
2023/01/11 11:00:21;;;;;;;1.95;1.85;;;;;;;4.84;97.70;62491.00;5069228;28;20256;-80
2023/01/11 11:03:07;;;;;;;1.77;1.67;;;;;;;5.06;97.59;62518.69;5068640;28;20333;-81
2023/01/11 11:05:41;;;;;;;2.42;1.23;;;;;;;5.37;96.02;62548.09;5068565;28;20198;-79
2023/01/11 11:08:13;;;;;;;1.50;1.40;;;;;;;5.32;91.96;62548.00;5066772;28;20214;-83
2023/01/11 11:10:51;;;;;;;1.60;1.50;;;;;;;4.57;94.80;62469.28;5049558;28;20194;-80
2023/01/11 11:13:27;;;;;;;1.77;1.67;;;;;;;4.65;94.98;62477.00;5057912;28;20202;-79
2023/01/11 11:16:05;;;;;;;1.05;1.05;;;;;;;4.90;93.43;62500.22;5056831;28;20221;-80
2023/01/11 11:18:33;;;;;;;1.20;1.10;;;;;;;4.69;95.57;62479.13;5049094;28;20268;-79
2023/01/11 11:21:04;;;;;;;3.10;1.77;;;;;;;4.93;95.00;62510.38;5049541;28;20230;-79
2023/01/11 11:23:32;;;;;;;1.88;1.70;;;;;;;5.03;92.95;62513.59;5048047;28;20293;-83
2023/01/11 11:26:03;;;;;;;34.83;19.88;;;;;;;5.32;92.72;62546.00;5048468;28;20614;-81
2023/01/11 11:28:31;;;;;;;2.67;1.52;;;;;;;5.02;90.49;62515.09;5051544;28;20209;-81
2023/01/11 11:31:01;;;;;;;1.45;1.45;;;;;;;4.73;90.88;62490.81;5065330;28;20277;-82
2023/01/11 11:33:35;;;;;;;1.50;1.50;;;;;;;4.37;92.06;62448.69;5067501;28;20308;-85
2023/01/11 11:36:04;;;;;;;1.83;1.73;;;;;;;4.12;94.26;62422.47;5071080;28;20225;-82
2023/01/11 11:38:33;;;;;;;1.80;1.70;;;;;;;4.07;96.57;62414.81;5065003;28;20252;-79
2023/01/11 11:41:06;;;;;;;1.77;1.67;;;;;;;3.64;97.75;62373.63;5047444;28;20252;-81
2023/01/11 11:43:34;;;;;;;2.55;2.10;;;;;;;4.04;99.37;62414.25;5051392;28;20601;-82
2023/01/11 11:46:04;;;;;;;2.40;2.20;;;;;;;4.57;99.10;62466.25;5062944;28;20259;-80
2023/01/11 11:48:33;;;;;;;2.00;1.90;;;;;;;4.29;97.10;62437.97;5072176;28;20272;-83
2023/01/11 11:51:04;;;;;;;2.25;2.15;;;;;;;4.58;98.44;62470.31;5068082;28;20221;-83
2023/01/11 11:53:41;;;;;;;2.08;1.98;;;;;;;4.80;97.45;62492.44;5056140;28;20214;-80
2023/01/11 11:56:21;;;;;;;3.97;3.58;;;;;;;4.76;96.12;62485.31;5049983;28;20226;-82
2023/01/11 11:58:48;;;;;;;2.17;2.08;;;;;;;4.61;95.67;62478.44;5049321;28;20236;-80
2023/01/11 12:01:25;;;;;;;2.10;2.00;;;;;;;4.59;96.08;62468.81;5069547;28;20236;-81
2023/01/11 12:03:57;;;;;;;2.33;2.20;;;;;;;4.52;95.05;62461.13;5070171;28;20224;-81
2023/01/11 12:06:28;;;;;;;1.90;1.80;;;;;;;4.40;96.09;62451.28;5069344;28;20217;-80
2023/01/11 12:08:57;;;;;;;15.25;7.78;;;;;;;4.16;97.05;62427.09;5050084;28;20261;-80
2023/01/11 12:11:31;;;;;;;3.08;2.85;;;;;;;4.04;97.62;62411.72;5049299;28;20229;-84